Time;durP1;ratioP1;P1;durP2;ratioP2;P2;SDS_P1;SDS_P2;PMS_P1;PMS_P2;Temp;Humidity;BMP_temperature;BMP_pressure;BME280_temperature;BME280_humidity;BME280_pressure;Samples;Min_cycle;Max_cycle;Signal;HPM_P1;HPM_P2
2021/01/21 00:02:17;;;;;;;14.93;9.60;;;3.70;99.90;;;;;;5010289;28;20052;-83
2021/01/21 00:04:43;;;;;;;14.10;8.65;;;3.70;99.90;;;;;;5026759;28;20106;-81
2021/01/21 00:07:09;;;;;;;11.57;7.47;;;3.70;99.90;;;;;;5026676;28;20033;-81
2021/01/21 00:09:34;;;;;;;15.73;7.97;;;3.80;99.90;;;;;;5010420;28;20573;-82
2021/01/21 00:12:00;;;;;;;11.75;7.22;;;3.80;99.90;;;;;;5026617;28;20514;-77
2021/01/21 00:14:26;;;;;;;10.18;6.82;;;3.80;99.90;;;;;;5010245;28;20037;-82
2021/01/21 00:16:52;;;;;;;14.48;7.43;;;3.90;99.90;;;;;;5009811;28;20049;-81
2021/01/21 00:19:18;;;;;;;13.48;7.35;;;3.90;99.90;;;;;;5026626;28;20492;-83
2021/01/21 00:21:43;;;;;;;9.68;6.28;;;3.90;99.90;;;;;;5026600;28;20029;-82
2021/01/21 00:24:09;;;;;;;10.55;6.03;;;3.90;99.90;;;;;;5043286;28;20079;-79
2021/01/21 00:26:35;;;;;;;10.55;6.50;;;3.90;99.90;;;;;;5027884;28;20029;-82
2021/01/21 00:29:01;;;;;;;10.43;5.63;;;3.90;99.90;;;;;;5026656;28;20543;-81
2021/01/21 00:31:27;;;;;;;9.15;5.50;;;3.90;99.90;;;;;;5010135;28;20022;-81
2021/01/21 00:33:52;;;;;;;8.40;5.68;;;3.80;99.90;;;;;;5027532;28;20030;-82
2021/01/21 00:36:18;;;;;;;8.88;5.25;;;3.70;99.90;;;;;;5026530;28;20088;-82
2021/01/21 00:38:44;;;;;;;10.40;6.20;;;3.60;99.90;;;;;;5027926;28;20041;-81
2021/01/21 00:41:09;;;;;;;9.93;6.07;;;3.60;99.90;;;;;;5013307;28;20029;-82
2021/01/21 00:43:35;;;;;;;7.50;4.78;;;3.50;99.90;;;;;;5030463;28;20032;-81
2021/01/21 00:46:01;;;;;;;8.25;5.32;;;3.50;99.90;;;;;;5030440;28;20057;-82
2021/01/21 00:48:27;;;;;;;8.75;5.55;;;3.50;99.90;;;;;;5030245;28;20395;-81
2021/01/21 00:50:53;;;;;;;7.95;5.20;;;3.50;99.90;;;;;;5013901;28;20050;-81
2021/01/21 00:53:19;;;;;;;7.78;4.75;;;3.50;99.90;;;;;;5030283;28;20474;-82
2021/01/21 00:55:45;;;;;;;7.88;4.63;;;3.50;99.90;;;;;;5031609;28;20122;-84
2021/01/21 00:58:10;;;;;;;7.70;4.32;;;3.50;99.90;;;;;;5031438;28;20041;-81
2021/01/21 01:00:37;;;;;;;8.60;4.45;;;3.50;99.90;;;;;;5030175;28;20025;-83
2021/01/21 01:03:07;;;;;;;9.98;4.50;;;3.40;99.90;;;;;;5030105;28;20033;-82
2021/01/21 01:05:33;;;;;;;6.45;3.83;;;3.40;99.90;;;;;;5031460;28;20382;-82
2021/01/21 01:07:59;;;;;;;6.07;3.88;;;3.40;99.90;;;;;;5031366;28;20392;-81
2021/01/21 01:10:25;;;;;;;7.47;3.88;;;3.40;99.90;;;;;;5029774;28;20033;-83
2021/01/21 01:12:51;;;;;;;5.72;3.58;;;3.40;99.90;;;;;;5030010;28;20037;-81
2021/01/21 01:15:17;;;;;;;6.88;4.13;;;3.40;99.90;;;;;;5029740;28;20145;-81
2021/01/21 01:17:43;;;;;;;11.20;4.03;;;3.50;99.90;;;;;;5013230;28;20053;-83
2021/01/21 01:20:09;;;;;;;5.10;2.75;;;3.60;99.90;;;;;;5013412;28;20057;-83
2021/01/21 01:22:35;;;;;;;6.80;3.15;;;3.60;99.90;;;;;;5030926;28;20464;-81
2021/01/21 01:25:00;;;;;;;5.43;3.10;;;3.70;99.90;;;;;;5013396;28;20021;-80
2021/01/21 01:27:26;;;;;;;5.15;2.72;;;3.80;99.90;;;;;;5013184;28;20469;-82
2021/01/21 01:29:52;;;;;;;6.18;3.35;;;3.90;99.90;;;;;;5029795;28;20037;-82
2021/01/21 01:32:17;;;;;;;6.70;2.88;;;3.90;99.90;;;;;;5029680;28;20362;-80
2021/01/21 01:34:43;;;;;;;8.55;2.80;;;4.00;99.90;;;;;;5013037;28;20030;-78
2021/01/21 01:37:08;;;;;;;5.28;2.83;;;4.00;99.90;;;;;;5012797;28;20032;-80
2021/01/21 01:39:34;;;;;;;7.13;2.53;;;4.00;99.90;;;;;;5012911;28;20535;-82
2021/01/21 01:42:08;;;;;;;6.05;2.50;;;4.00;99.90;;;;;;5012786;28;20022;-81
2021/01/21 01:44:33;;;;;;;10.20;2.42;;;4.10;99.90;;;;;;5046033;28;20087;-83
2021/01/21 01:46:59;;;;;;;4.43;2.58;;;4.10;99.90;;;;;;5030696;28;20491;-81
2021/01/21 01:49:25;;;;;;;7.38;2.60;;;4.10;99.90;;;;;;5029145;28;20029;-85
2021/01/21 01:51:50;;;;;;;3.15;2.13;;;4.10;99.90;;;;;;5011988;28;20030;-83
2021/01/21 01:54:16;;;;;;;4.65;2.58;;;4.10;99.90;;;;;;5029090;28;20057;-78
2021/01/21 01:56:42;;;;;;;5.80;2.58;;;4.10;99.90;;;;;;5030298;28;20036;-80
2021/01/21 01:59:08;;;;;;;5.40;2.58;;;4.10;99.90;;;;;;5012704;28;20026;-80
2021/01/21 02:01:35;;;;;;;5.45;2.65;;;4.10;99.90;;;;;;5012282;28;20331;-82
2021/01/21 02:04:01;;;;;;;3.35;2.10;;;4.10;99.90;;;;;;5029099;28;20028;-78
2021/01/21 02:06:27;;;;;;;4.53;2.00;;;4.00;99.90;;;;;;5012586;28;20030;-82
2021/01/21 02:08:53;;;;;;;4.88;2.00;;;4.10;99.90;;;;;;5028755;28;20476;-81
2021/01/21 02:11:48;;;;;;;5.68;2.10;;;4.10;99.90;;;;;;5030067;28;20108;-83
2021/01/21 02:14:24;;;;;;;4.40;1.90;;;4.20;99.90;;;;;;5028762;28;20246;-82
2021/01/21 02:17:00;;;;;;;4.32;2.20;;;4.20;99.90;;;;;;5028373;28;20475;-82
2021/01/21 02:19:48;;;;;;;5.15;2.30;;;4.30;99.90;;;;;;5029936;28;20029;-81
2021/01/21 02:22:32;;;;;;;5.57;2.08;;;4.30;99.90;;;;;;5028472;28;20025;-81
2021/01/21 02:25:11;;;;;;;6.18;2.30;;;4.40;99.90;;;;;;5029979;28;20029;-80
2021/01/21 02:27:46;;;;;;;4.72;1.70;;;4.40;99.90;;;;;;5029749;28;20052;-80
2021/01/21 02:30:40;;;;;;;8.23;2.58;;;4.40;99.90;;;;;;5028332;28;20033;-82
2021/01/21 02:33:51;;;;;;;3.05;1.70;;;4.50;99.90;;;;;;5028533;28;20026;-81
2021/01/21 02:36:20;;;;;;;5.70;2.00;;;4.50;99.90;;;;;;5022891;28;20037;-82
2021/01/21 02:38:46;;;;;;;2.15;1.33;;;4.60;99.90;;;;;;5028374;28;20018;-82
2021/01/21 02:41:14;;;;;;;4.25;1.85;;;4.60;99.90;;;;;;5028100;28;20037;-81
2021/01/21 02:43:40;;;;;;;3.33;1.65;;;4.60;99.90;;;;;;5029623;28;20026;-82
2021/01/21 02:46:05;;;;;;;3.60;1.50;;;4.70;99.90;;;;;;5028239;28;20033;-80
2021/01/21 02:48:33;;;;;;;4.53;1.60;;;4.70;99.90;;;;;;5028007;28;20120;-81
2021/01/21 02:51:12;;;;;;;3.40;2.08;;;4.70;99.90;;;;;;5027858;28;20052;-83
2021/01/21 02:53:40;;;;;;;2.67;1.60;;;4.70;99.90;;;;;;5029178;28;20392;-80
2021/01/21 02:56:13;;;;;;;3.90;1.50;;;4.70;99.90;;;;;;5027933;28;20122;-79
2021/01/21 02:58:44;;;;;;;3.15;1.90;;;4.70;99.90;;;;;;5011768;28;20124;-79
2021/01/21 03:01:12;;;;;;;2.97;2.03;;;4.70;99.90;;;;;;5028978;28;20033;-78
2021/01/21 03:03:40;;;;;;;4.70;2.05;;;4.70;99.90;;;;;;5027942;28;20110;-79
2021/01/21 03:06:07;;;;;;;3.83;2.10;;;4.70;99.90;;;;;;5011176;28;20362;-78
2021/01/21 03:08:33;;;;;;;3.40;2.28;;;4.70;99.90;;;;;;5027574;28;20034;-79
2021/01/21 03:11:12;;;;;;;4.35;2.55;;;4.70;99.90;;;;;;5027664;28;20156;-80
2021/01/21 03:13:39;;;;;;;;;;;4.70;99.90;;;;;;5028161;28;20037;-79
2021/01/21 03:16:05;;;;;;;4.97;3.25;;;4.70;99.90;;;;;;5028626;28;19917;-79
2021/01/21 03:18:31;;;;;;;5.78;3.60;;;4.70;99.90;;;;;;5027469;28;20037;-79
2021/01/21 03:20:57;;;;;;;6.78;3.00;;;4.60;99.90;;;;;;5010819;28;20393;-79
2021/01/21 03:23:22;;;;;;;5.53;3.03;;;4.60;99.90;;;;;;5028482;28;20033;-80
2021/01/21 03:25:48;;;;;;;4.40;2.75;;;4.70;99.90;;;;;;5027215;28;20059;-78
2021/01/21 03:28:14;;;;;;;5.85;3.70;;;4.70;99.90;;;;;;5027157;28;20031;-79
2021/01/21 03:30:39;;;;;;;5.90;3.10;;;4.70;99.90;;;;;;5028215;28;20367;-80
2021/01/21 03:33:05;;;;;;;8.20;3.00;;;4.70;99.90;;;;;;5010648;28;20387;-79
2021/01/21 03:35:31;;;;;;;4.07;2.20;;;4.70;99.90;;;;;;5027424;28;20033;-79
2021/01/21 03:37:57;;;;;;;2.90;1.85;;;4.70;99.90;;;;;;5028455;28;20026;-79
2021/01/21 03:40:22;;;;;;;3.53;1.60;;;4.70;99.90;;;;;;5010779;28;20395;-79
2021/01/21 03:42:48;;;;;;;3.25;1.73;;;4.70;99.90;;;;;;5010582;28;20030;-78
2021/01/21 03:45:14;;;;;;;4.32;2.10;;;4.70;99.90;;;;;;5028686;28;20512;-81
2021/01/21 03:47:39;;;;;;;2.38;1.73;;;4.70;99.90;;;;;;5028327;28;20376;-78
2021/01/21 03:50:06;;;;;;;4.13;1.90;;;4.70;99.90;;;;;;5026889;28;20021;-80
2021/01/21 03:52:32;;;;;;;2.00;1.42;;;4.60;99.90;;;;;;5010585;28;20050;-79
2021/01/21 03:54:57;;;;;;;3.45;1.98;;;4.50;99.90;;;;;;5010301;28;20388;-81
2021/01/21 03:57:23;;;;;;;2.63;1.80;;;4.50;99.90;;;;;;5028262;28;20044;-77
2021/01/21 03:59:49;;;;;;;4.47;2.58;;;4.50;99.90;;;;;;5010434;28;20124;-79
2021/01/21 04:02:14;;;;;;;4.72;2.28;;;4.50;99.90;;;;;;5010227;28;20031;-80
2021/01/21 04:04:40;;;;;;;4.53;2.42;;;4.50;99.90;;;;;;5010307;28;20076;-78
2021/01/21 04:07:06;;;;;;;6.38;2.30;;;4.50;99.90;;;;;;5026543;28;20120;-79
2021/01/21 04:09:31;;;;;;;3.45;2.40;;;4.40;99.90;;;;;;5010408;28;20026;-80
2021/01/21 04:11:57;;;;;;;2.75;1.92;;;4.40;99.90;;;;;;5026605;28;20783;-79
2021/01/21 04:14:23;;;;;;;3.38;1.90;;;4.40;99.90;;;;;;5009859;28;20029;-81
2021/01/21 04:16:48;;;;;;;2.60;1.73;;;4.50;99.90;;;;;;5026513;28;20273;-79
2021/01/21 04:19:14;;;;;;;3.17;1.95;;;4.50;99.90;;;;;;5026571;28;20410;-78
2021/01/21 04:21:40;;;;;;;3.50;2.20;;;4.60;99.90;;;;;;5009968;28;20026;-80
2021/01/21 04:24:06;;;;;;;3.97;1.80;;;4.60;99.90;;;;;;5026483;28;20026;-81
2021/01/21 04:26:32;;;;;;;2.90;2.20;;;4.60;99.90;;;;;;5026261;28;20550;-80
2021/01/21 04:28:57;;;;;;;5.70;1.88;;;4.70;99.90;;;;;;5026509;28;20060;-77
2021/01/21 04:31:23;;;;;;;6.28;1.98;;;4.70;99.90;;;;;;5026497;28;20491;-79
2021/01/21 04:33:49;;;;;;;2.60;1.73;;;4.70;99.90;;;;;;5027840;28;20054;-78
2021/01/21 04:36:14;;;;;;;2.95;1.80;;;4.70;99.90;;;;;;5026682;28;20017;-79
2021/01/21 04:38:41;;;;;;;5.43;1.92;;;4.70;99.90;;;;;;5026336;28;20439;-77
2021/01/21 04:41:07;;;;;;;3.65;1.70;;;4.70;99.90;;;;;;5026507;28;20618;-79
2021/01/21 04:43:32;;;;;;;3.13;1.92;;;4.80;99.90;;;;;;5027707;28;20112;-80
2021/01/21 04:45:58;;;;;;;4.07;1.60;;;4.70;99.90;;;;;;5026306;28;20087;-83
2021/01/21 04:48:25;;;;;;;2.95;1.80;;;4.70;99.90;;;;;;5009761;28;20040;-82
2021/01/21 04:50:51;;;;;;;2.58;1.70;;;4.70;99.90;;;;;;5026323;28;20060;-78
2021/01/21 04:53:22;;;;;;;3.47;2.20;;;4.70;99.90;;;;;;5026386;28;20392;-79
2021/01/21 04:55:54;;;;;;;3.70;2.13;;;4.70;99.90;;;;;;5027593;28;20101;-77
2021/01/21 04:58:31;;;;;;;3.83;1.90;;;4.70;99.90;;;;;;5027461;28;20375;-81
2021/01/21 05:00:59;;;;;;;3.22;1.40;;;4.70;99.90;;;;;;5026374;28;20361;-78
2021/01/21 05:03:26;;;;;;;4.88;1.80;;;4.60;99.90;;;;;;5027385;28;20088;-78
2021/01/21 05:05:52;;;;;;;7.10;1.60;;;4.50;99.90;;;;;;5026103;28;20120;-80
2021/01/21 05:08:18;;;;;;;2.40;1.58;;;4.50;99.90;;;;;;5009632;28;20136;-79
2021/01/21 05:10:45;;;;;;;5.10;1.40;;;4.50;99.90;;;;;;5027351;28;20025;-77
2021/01/21 05:13:11;;;;;;;3.08;1.00;;;4.50;99.90;;;;;;5009794;28;20495;-81
2021/01/21 05:15:37;;;;;;;4.10;1.20;;;4.50;99.90;;;;;;5025977;28;20078;-79
2021/01/21 05:18:04;;;;;;;2.42;1.40;;;4.60;99.90;;;;;;5026217;28;20040;-78
2021/01/21 05:20:34;;;;;;;2.38;1.60;;;4.60;99.90;;;;;;5027409;28;20058;-79
2021/01/21 05:23:02;;;;;;;2.55;1.20;;;4.70;99.90;;;;;;5026113;28;20116;-78
2021/01/21 05:25:28;;;;;;;3.15;1.20;;;4.60;99.90;;;;;;5025882;28;20052;-79
2021/01/21 05:27:59;;;;;;;2.38;0.90;;;4.60;99.90;;;;;;5028266;28;20041;-80
2021/01/21 05:30:32;;;;;;;2.88;0.98;;;4.60;99.90;;;;;;5030853;28;20408;-79
2021/01/21 05:32:58;;;;;;;3.22;1.15;;;4.60;99.90;;;;;;5029332;28;20479;-79
2021/01/21 05:35:25;;;;;;;2.42;1.40;;;4.60;99.90;;;;;;5029371;28;20543;-81
2021/01/21 05:37:55;;;;;;;4.38;0.95;;;4.70;99.90;;;;;;5012840;28;20029;-80
2021/01/21 05:40:29;;;;;;;1.60;1.10;;;4.70;99.90;;;;;;5029432;28;20030;-81
2021/01/21 05:42:57;;;;;;;1.58;1.23;;;4.70;99.90;;;;;;5030566;28;20022;-80
2021/01/21 05:45:24;;;;;;;1.08;0.80;;;4.70;99.90;;;;;;5030492;28;20041;-78
2021/01/21 05:47:58;;;;;;;2.47;1.10;;;4.60;99.90;;;;;;5030501;28;20113;-80
2021/01/21 05:50:25;;;;;;;2.47;1.00;;;4.60;99.90;;;;;;5030356;28;20124;-78
2021/01/21 05:52:53;;;;;;;6.10;1.25;;;4.60;99.90;;;;;;5012798;28;20057;-78
2021/01/21 05:55:22;;;;;;;5.05;0.95;;;4.60;99.90;;;;;;5012804;28;20060;-79
2021/01/21 05:57:49;;;;;;;1.13;0.93;;;4.70;99.90;;;;;;5029182;28;20026;-79
2021/01/21 06:00:16;;;;;;;1.60;0.95;;;4.70;99.90;;;;;;5030177;28;20113;-70
2021/01/21 06:02:43;;;;;;;1.80;1.00;;;4.70;99.90;;;;;;5030187;28;20033;-81
2021/01/21 06:05:14;;;;;;;1.33;0.85;;;4.60;99.90;;;;;;5028788;28;20041;-82
2021/01/21 06:07:39;;;;;;;3.10;1.00;;;4.60;99.90;;;;;;5030068;28;20109;-81
2021/01/21 06:10:07;;;;;;;1.60;0.90;;;4.60;99.90;;;;;;5028796;28;20108;-79
2021/01/21 06:12:33;;;;;;;1.23;0.88;;;4.70;99.90;;;;;;5028498;28;20417;-78
2021/01/21 06:15:00;;;;;;;3.80;1.13;;;4.60;99.90;;;;;;5012012;28;20084;-78
2021/01/21 06:17:29;;;;;;;1.38;0.93;;;4.50;99.90;;;;;;5029858;28;20029;-80
2021/01/21 06:19:55;;;;;;;2.30;0.70;;;4.40;99.90;;;;;;5012033;28;20095;-78
2021/01/21 06:22:31;;;;;;;2.30;1.10;;;4.30;99.90;;;;;;5028315;28;20059;-81
2021/01/21 06:25:02;;;;;;;2.40;1.08;;;4.20;99.90;;;;;;5028148;28;20096;-78
2021/01/21 06:27:29;;;;;;;3.67;0.93;;;4.20;99.90;;;;;;5029872;28;20028;-77
2021/01/21 06:29:56;;;;;;;2.95;0.93;;;4.20;99.90;;;;;;5028333;28;20029;-81
2021/01/21 06:32:33;;;;;;;5.13;1.40;;;4.20;99.90;;;;;;5029710;28;20075;-79
2021/01/21 06:35:03;;;;;;;2.08;0.60;;;4.20;99.90;;;;;;5029630;28;20381;-80
2021/01/21 06:37:32;;;;;;;3.97;0.95;;;4.10;99.90;;;;;;5029638;28;20025;-78
2021/01/21 06:40:05;;;;;;;1.55;0.60;;;4.10;99.90;;;;;;5028117;28;20031;-79
2021/01/21 06:42:34;;;;;;;2.72;0.90;;;4.10;99.90;;;;;;5027998;28;20369;-77
2021/01/21 06:45:01;;;;;;;1.85;0.68;;;4.10;99.90;;;;;;5027984;28;20679;-80
2021/01/21 06:47:29;;;;;;;2.00;0.65;;;4.10;99.90;;;;;;5011821;28;20037;-78
2021/01/21 06:49:56;;;;;;;1.38;0.70;;;4.10;99.90;;;;;;5029443;28;20022;-81
2021/01/21 06:52:29;;;;;;;1.63;0.70;;;4.10;99.90;;;;;;5029068;28;20379;-81
2021/01/21 06:54:56;;;;;;;3.53;0.75;;;4.00;99.90;;;;;;5029195;28;20079;-79
2021/01/21 06:57:33;;;;;;;3.13;0.80;;;3.90;99.90;;;;;;5028970;28;20026;-80
2021/01/21 07:00:12;;;;;;;4.03;0.90;;;3.90;99.90;;;;;;5029070;28;20039;-79
2021/01/21 07:02:42;;;;;;;2.65;0.98;;;3.80;99.90;;;;;;5027749;28;20025;-79
2021/01/21 07:05:13;;;;;;;3.70;1.00;;;3.70;99.90;;;;;;5027842;28;20026;-81
2021/01/21 07:07:56;;;;;;;1.23;0.70;;;3.70;99.90;;;;;;5027710;28;20029;-80
2021/01/21 07:10:45;;;;;;;1.98;0.80;;;3.60;99.90;;;;;;5028798;28;20080;-82
2021/01/21 07:13:19;;;;;;;0.88;0.40;;;3.60;99.90;;;;;;5027654;28;20022;-82
2021/01/21 07:15:46;;;;;;;1.70;0.63;;;3.60;99.90;;;;;;5027320;28;20475;-83
2021/01/21 07:18:22;;;;;;;4.07;1.00;;;3.80;99.90;;;;;;5027344;28;20026;-82
2021/01/21 07:21:06;;;;;;;3.05;0.55;;;3.80;99.90;;;;;;5027635;28;20067;-82
2021/01/21 07:23:55;;;;;;;3.72;0.80;;;3.90;99.90;;;;;;5028717;28;20035;-82
2021/01/21 07:26:42;;;;;;;4.97;1.00;;;4.00;99.90;;;;;;5028631;28;20048;-81
2021/01/21 07:29:15;;;;;;;1.63;0.52;;;4.00;99.90;;;;;;5027631;28;20400;-83
2021/01/21 07:31:56;;;;;;;1.77;0.77;;;4.00;99.90;;;;;;5028601;28;20026;-81
2021/01/21 07:34:35;;;;;;;1.23;0.75;;;4.00;99.90;;;;;;5028354;28;20033;-82
2021/01/21 07:37:10;;;;;;;2.47;0.80;;;4.00;99.90;;;;;;5028801;28;20491;-79
2021/01/21 07:40:02;;;;;;;3.63;0.85;;;3.90;99.90;;;;;;5027043;28;20059;-80
2021/01/21 07:42:36;;;;;;;2.38;0.50;;;3.80;99.90;;;;;;5028363;28;20480;-80
2021/01/21 07:45:17;;;;;;;1.98;0.70;;;3.70;99.90;;;;;;5027001;28;20039;-80
2021/01/21 07:47:47;;;;;;;2.13;0.95;;;3.70;99.90;;;;;;5027993;28;20022;-81
2021/01/21 07:50:21;;;;;;;2.90;0.80;;;3.70;99.90;;;;;;5010134;28;20026;-79
2021/01/21 07:52:55;;;;;;;2.65;0.90;;;3.80;99.90;;;;;;5026007;28;20112;-78
2021/01/21 07:55:32;;;;;;;3.28;0.60;;;3.90;99.90;;;;;;5027709;28;20021;-80
2021/01/21 07:58:23;;;;;;;3.13;0.70;;;3.90;99.90;;;;;;5026602;28;20029;-79
2021/01/21 08:00:52;;;;;;;3.25;1.17;;;4.00;99.90;;;;;;5028009;28;20538;-79
2021/01/21 08:03:39;;;;;;;2.00;0.75;;;4.10;99.90;;;;;;5026638;28;20029;-79
2021/01/21 08:06:18;;;;;;;1.35;0.40;;;4.10;99.90;;;;;;5028024;28;20109;-79
2021/01/21 08:08:50;;;;;;;3.65;1.00;;;4.10;99.90;;;;;;5026324;28;20376;-78
2021/01/21 08:11:18;;;;;;;3.75;1.65;;;4.20;99.90;;;;;;5027761;28;20049;-81
2021/01/21 08:13:46;;;;;;;2.47;1.02;;;4.20;99.90;;;;;;5027855;28;20033;-81
2021/01/21 08:16:14;;;;;;;5.55;0.75;;;4.20;99.90;;;;;;5026209;28;20045;-81
2021/01/21 08:18:40;;;;;;;2.55;0.90;;;4.20;99.90;;;;;;5026369;28;20574;-79
2021/01/21 08:21:23;;;;;;;2.67;0.93;;;4.20;99.90;;;;;;5010052;28;20060;-81
2021/01/21 08:23:59;;;;;;;5.03;1.02;;;4.20;99.90;;;;;;5010161;28;20029;-78
2021/01/21 08:26:27;;;;;;;3.55;0.70;;;4.20;99.90;;;;;;5026588;28;20029;-81
2021/01/21 08:28:53;;;;;;;3.53;0.73;;;4.20;99.90;;;;;;5026165;28;20026;-82
2021/01/21 08:31:20;;;;;;;2.97;0.60;;;4.20;99.90;;;;;;5026413;28;20017;-81
2021/01/21 08:33:51;;;;;;;1.00;0.60;;;4.30;99.90;;;;;;5026112;28;20030;-81
2021/01/21 08:36:22;;;;;;;1.48;0.77;;;4.30;99.90;;;;;;5027588;28;20026;-78
2021/01/21 08:38:48;;;;;;;1.85;1.05;;;4.40;99.90;;;;;;5026301;28;20121;-77
2021/01/21 08:41:15;;;;;;;2.22;1.17;;;4.40;99.90;;;;;;5026951;28;20545;-79
2021/01/21 08:43:43;;;;;;;2.83;0.85;;;4.50;99.90;;;;;;5026242;28;20087;-77
2021/01/21 08:46:13;;;;;;;2.28;0.75;;;4.50;99.90;;;;;;5026128;28;20451;-81
2021/01/21 08:48:39;;;;;;;5.25;1.00;;;4.50;99.90;;;;;;5026074;28;20034;-77
2021/01/21 08:51:41;;;;;;;3.05;1.25;;;4.60;99.90;;;;;;5027869;28;20373;-76
2021/01/21 08:54:10;;;;;;;6.07;1.27;;;4.60;99.90;;;;;;5027124;28;20025;-78
2021/01/21 08:56:36;;;;;;;2.65;0.98;;;4.70;99.90;;;;;;5026000;28;20785;-78
2021/01/21 08:59:25;;;;;;;3.05;1.27;;;4.70;99.90;;;;;;5026133;28;20034;-78
2021/01/21 09:01:51;;;;;;;3.20;1.13;;;4.80;99.90;;;;;;5026830;28;20083;-80
2021/01/21 09:04:30;;;;;;;3.78;1.60;;;4.80;99.90;;;;;;5029933;28;20026;-80
2021/01/21 09:06:58;;;;;;;3.00;0.88;;;4.90;99.90;;;;;;5030002;28;20104;-80
2021/01/21 09:09:26;;;;;;;3.65;1.38;;;5.00;99.90;;;;;;5013328;28;20533;-83
2021/01/21 09:11:51;;;;;;;9.63;1.27;;;5.10;99.90;;;;;;5029940;28;20392;-79
2021/01/21 09:14:18;;;;;;;5.63;1.40;;;5.10;99.90;;;;;;5029686;28;20030;-80
2021/01/21 09:16:53;;;;;;;3.95;1.10;;;5.20;99.90;;;;;;5029308;28;20543;-78
2021/01/21 09:19:28;;;;;;;2.47;1.13;;;5.20;99.90;;;;;;5013139;28;20253;-77
2021/01/21 09:22:02;;;;;;;5.13;1.10;;;5.30;99.90;;;;;;5029620;28;20029;-76
2021/01/21 09:24:28;;;;;;;8.20;1.90;;;5.30;99.90;;;;;;5030872;28;20112;-80
2021/01/21 09:27:15;;;;;;;5.93;1.45;;;5.30;99.90;;;;;;5028829;28;20087;-79
2021/01/21 09:29:56;;;;;;;4.80;1.52;;;5.40;99.90;;;;;;5031047;28;20013;-83
2021/01/21 09:32:31;;;;;;;2.92;1.45;;;5.40;99.90;;;;;;5030413;28;20070;-80
2021/01/21 09:35:05;;;;;;;3.67;1.88;;;5.40;99.90;;;;;;5029183;28;20021;-82
2021/01/21 09:37:36;;;;;;;3.65;1.05;;;5.50;99.90;;;;;;5029021;28;20029;-78
2021/01/21 09:40:06;;;;;;;2.33;1.50;;;5.50;99.90;;;;;;5029167;28;20029;-79
2021/01/21 09:42:32;;;;;;;6.93;1.45;;;5.50;99.90;;;;;;5028797;28;20044;-77
2021/01/21 09:44:59;;;;;;;2.67;1.17;;;5.50;99.90;;;;;;5030224;28;20037;-82
2021/01/21 09:47:26;;;;;;;2.08;0.82;;;5.60;99.90;;;;;;5029075;28;20033;-82
2021/01/21 09:49:51;;;;;;;5.40;1.88;;;5.60;99.90;;;;;;5030349;28;20551;-81
2021/01/21 09:52:17;;;;;;;4.32;1.73;;;5.70;99.90;;;;;;5012276;28;20116;-80
2021/01/21 09:54:43;;;;;;;2.60;1.05;;;5.80;99.90;;;;;;5012145;28;20048;-78
2021/01/21 09:57:09;;;;;;;3.90;1.67;;;5.80;99.90;;;;;;5012100;28;20034;-80
2021/01/21 09:59:35;;;;;;;7.15;1.88;;;5.90;99.90;;;;;;5011879;28;20037;-80
2021/01/21 10:02:01;;;;;;;6.93;1.40;;;5.90;99.90;;;;;;5029621;28;20132;-82
2021/01/21 10:04:27;;;;;;;4.43;1.80;;;5.90;99.90;;;;;;5029869;28;20036;-79
2021/01/21 10:06:53;;;;;;;7.70;1.88;;;5.90;99.90;;;;;;5029351;28;20030;-82
2021/01/21 10:09:19;;;;;;;7.35;1.67;;;5.90;99.90;;;;;;5028061;28;20507;-78
2021/01/21 10:11:44;;;;;;;3.30;1.65;;;6.00;99.90;;;;;;5029529;28;20385;-79
2021/01/21 10:14:10;;;;;;;6.10;1.85;;;6.00;99.90;;;;;;5011551;28;20033;-78
2021/01/21 10:16:36;;;;;;;5.90;1.73;;;6.10;99.90;;;;;;5011277;28;20449;-83
2021/01/21 10:19:02;;;;;;;6.82;2.17;;;6.10;99.90;;;;;;5029481;28;20064;-80
2021/01/21 10:21:28;;;;;;;1.35;0.90;;;6.10;99.90;;;;;;5029912;28;20048;-76
2021/01/21 10:23:54;;;;;;;4.75;1.10;;;6.20;99.90;;;;;;5028098;28;20025;-79
2021/01/21 10:26:20;;;;;;;3.70;1.27;;;6.30;99.90;;;;;;5027789;28;20044;-80
2021/01/21 10:28:47;;;;;;;7.50;1.40;;;6.30;99.90;;;;;;5029091;28;20057;-77
2021/01/21 10:31:13;;;;;;;5.55;1.90;;;6.30;99.90;;;;;;5027682;28;20134;-80
2021/01/21 10:33:39;;;;;;;4.68;2.17;;;6.40;99.90;;;;;;5027647;28;20124;-78
2021/01/21 10:36:08;;;;;;;4.47;1.17;;;6.50;99.90;;;;;;5029197;28;20105;-78
2021/01/21 10:38:34;;;;;;;2.95;1.70;;;6.60;99.90;;;;;;5010897;28;20049;-79
2021/01/21 10:41:03;;;;;;;5.03;1.20;;;6.80;99.90;;;;;;5026967;28;20080;-79
2021/01/21 10:43:29;;;;;;;4.05;0.80;;;7.20;99.90;;;;;;5028571;28;20060;-79
2021/01/21 10:45:54;;;;;;;1.98;1.05;;;8.00;99.90;;;;;;5027252;28;20041;-80
2021/01/21 10:48:20;;;;;;;3.35;1.40;;;8.60;99.90;;;;;;5026663;28;20033;-81
2021/01/21 10:50:46;;;;;;;2.55;0.82;;;9.20;99.90;;;;;;5010529;28;20108;-79
2021/01/21 10:53:11;;;;;;;2.58;1.00;;;9.50;99.90;;;;;;5027232;28;20386;-79
2021/01/21 10:55:37;;;;;;;2.95;1.10;;;9.40;99.80;;;;;;5010181;28;20079;-79
2021/01/21 10:58:06;;;;;;;3.53;1.10;;;9.10;99.40;;;;;;5026965;28;20032;-79
2021/01/21 11:00:33;;;;;;;3.13;1.27;;;8.80;99.00;;;;;;5027037;28;20106;-76
2021/01/21 11:02:59;;;;;;;3.15;1.90;;;8.60;99.20;;;;;;5028469;28;20033;-77
2021/01/21 11:05:25;;;;;;;6.35;2.00;;;8.40;99.30;;;;;;5028125;28;20061;-77
2021/01/21 11:07:52;;;;;;;6.18;1.75;;;8.30;99.60;;;;;;5027845;28;20120;-78
2021/01/21 11:10:17;;;;;;;7.10;2.00;;;8.30;99.70;;;;;;5026941;28;20030;-78
2021/01/21 11:12:48;;;;;;;7.40;2.63;;;8.30;99.50;;;;;;5026652;28;20029;-80
2021/01/21 11:15:17;;;;;;;5.53;1.98;;;8.20;99.60;;;;;;5027544;28;20049;-78
2021/01/21 11:17:44;;;;;;;;;;;8.20;99.60;;;;;;5026901;28;20036;-79
2021/01/21 11:20:10;;;;;;;2.10;1.02;;;8.20;99.60;;;;;;5042386;28;19927;-80
2021/01/21 11:22:37;;;;;;;4.85;1.42;;;8.10;99.50;;;;;;5026347;28;20415;-78
2021/01/21 11:25:05;;;;;;;6.57;1.67;;;8.10;99.60;;;;;;5025538;28;20116;-79
2021/01/21 11:27:31;;;;;;;6.57;2.10;;;8.10;99.80;;;;;;5027303;28;20033;-77
2021/01/21 11:29:57;;;;;;;7.68;2.83;;;8.20;99.70;;;;;;5026751;28;20036;-81
2021/01/21 11:32:23;;;;;;;7.22;3.03;;;8.30;99.90;;;;;;5026693;28;20392;-78
2021/01/21 11:34:48;;;;;;;6.68;1.65;;;8.50;99.90;;;;;;5009906;28;20037;-79
2021/01/21 11:37:14;;;;;;;4.10;1.63;;;8.70;99.70;;;;;;5026424;28;20034;-80
2021/01/21 11:39:39;;;;;;;4.47;1.50;;;8.70;99.20;;;;;;5027300;28;20029;-79
2021/01/21 11:42:05;;;;;;;6.97;3.35;;;8.80;99.50;;;;;;5009287;28;20124;-79
2021/01/21 11:44:31;;;;;;;45.60;27.65;;;9.20;99.90;;;;;;5009748;28;20491;-79
2021/01/21 11:46:57;;;;;;;4.80;2.17;;;9.60;99.60;;;;;;5026914;28;20096;-80
2021/01/21 11:49:23;;;;;;;9.90;2.72;;;9.80;98.80;;;;;;5026325;28;20451;-78
2021/01/21 11:51:49;;;;;;;6.57;2.70;;;9.80;98.50;;;;;;5025867;28;20487;-77
2021/01/21 11:54:14;;;;;;;5.22;2.58;;;10.00;99.10;;;;;;5010189;28;20036;-78
2021/01/21 11:56:40;;;;;;;5.95;2.28;;;10.50;99.60;;;;;;5026175;28;20097;-79
2021/01/21 11:59:06;;;;;;;4.63;2.15;;;11.30;99.90;;;;;;5026021;28;20045;-78
2021/01/21 12:01:32;;;;;;;5.63;2.47;;;12.00;99.00;;;;;;5027291;28;20108;-79
2021/01/21 12:03:58;;;;;;;3.00;1.38;;;12.10;97.60;;;;;;5026513;28;20203;-83
2021/01/21 12:06:24;;;;;;;3.78;1.90;;;12.20;96.90;;;;;;5042624;28;20084;-79
2021/01/21 12:08:50;;;;;;;5.38;2.45;;;12.30;97.30;;;;;;5009628;28;20498;-77
2021/01/21 12:11:16;;;;;;;4.72;2.15;;;12.40;96.50;;;;;;5026202;28;20395;-79
2021/01/21 12:13:42;;;;;;;3.83;1.98;;;12.40;96.10;;;;;;5025950;28;20050;-78
2021/01/21 12:16:08;;;;;;;5.35;2.53;;;12.40;95.80;;;;;;5026263;28;20057;-83
2021/01/21 12:18:34;;;;;;;3.92;2.50;;;12.30;95.90;;;;;;5025567;28;20508;-81
2021/01/21 12:20:59;;;;;;;4.65;2.20;;;12.50;95.80;;;;;;5025607;28;20045;-78
2021/01/21 12:23:25;;;;;;;6.53;1.83;;;12.60;95.60;;;;;;5009368;28;20025;-77
2021/01/21 12:25:52;;;;;;;6.00;1.60;;;12.60;94.80;;;;;;5026156;28;20494;-81
2021/01/21 12:28:18;;;;;;;4.53;2.30;;;12.50;94.30;;;;;;5025924;28;20476;-79
2021/01/21 12:30:44;;;;;;;3.17;1.58;;;12.30;94.40;;;;;;5009555;28;20052;-77
2021/01/21 12:33:09;;;;;;;4.63;1.40;;;12.20;94.40;;;;;;5026682;28;20036;-78
2021/01/21 12:35:35;;;;;;;3.47;1.60;;;12.30;94.90;;;;;;5027699;28;20039;-80
2021/01/21 12:38:01;;;;;;;4.70;1.90;;;12.30;94.40;;;;;;5031360;28;20029;-82
2021/01/21 12:40:27;;;;;;;5.65;2.08;;;12.40;94.50;;;;;;5013449;28;20396;-80
2021/01/21 12:42:52;;;;;;;6.72;2.22;;;12.30;93.90;;;;;;5031486;28;20033;-82
2021/01/21 12:45:18;;;;;;;5.15;2.03;;;12.50;94.30;;;;;;5013847;28;20057;-82
2021/01/21 12:47:44;;;;;;;3.83;1.67;;;12.80;94.70;;;;;;5030448;28;20029;-79
2021/01/21 12:50:10;;;;;;;3.80;1.35;;;13.00;94.10;;;;;;5029562;28;20037;-78
2021/01/21 12:52:38;;;;;;;6.45;1.75;;;12.90;92.90;;;;;;5030737;28;20028;-79
2021/01/21 12:55:05;;;;;;;5.00;1.90;;;12.50;92.10;;;;;;5031422;28;20030;-77
2021/01/21 12:57:30;;;;;;;6.57;1.67;;;12.00;92.20;;;;;;5030530;28;20064;-80
2021/01/21 12:59:57;;;;;;;4.72;1.38;;;11.60;92.10;;;;;;5014643;28;20336;-81
2021/01/21 13:02:27;;;;;;;4.90;1.50;;;11.20;92.50;;;;;;5030849;28;20033;-80
2021/01/21 13:04:54;;;;;;;5.45;1.60;;;10.80;92.80;;;;;;5031722;28;20484;-82